sensor_id;sensor_type;location;lat;lon;timestamp;P1;durP1;ratioP1;P2;durP2;ratioP2
75793;SDS011;64418;47.536;19.074;2023-02-20T00:02:17;4.28;;;1.58;;
75793;SDS011;64418;47.536;19.074;2023-02-20T00:04:45;10.57;;;6.15;;
75793;SDS011;64418;47.536;19.074;2023-02-20T00:07:11;8.27;;;4.57;;
75793;SDS011;64418;47.536;19.074;2023-02-20T00:09:37;3.85;;;2.30;;
75793;SDS011;64418;47.536;19.074;2023-02-20T00:12:03;2.75;;;1.25;;
75793;SDS011;64418;47.536;19.074;2023-02-20T00:14:29;1.60;;;1.30;;
75793;SDS011;64418;47.536;19.074;2023-02-20T00:16:55;4.55;;;2.17;;
75793;SDS011;64418;47.536;19.074;2023-02-20T00:19:22;3.95;;;1.65;;
75793;SDS011;64418;47.536;19.074;2023-02-20T00:21:48;2.90;;;1.00;;
75793;SDS011;64418;47.536;19.074;2023-02-20T00:24:15;3.10;;;1.00;;
75793;SDS011;64418;47.536;19.074;2023-02-20T00:26:45;1.75;;;0.70;;
75793;SDS011;64418;47.536;19.074;2023-02-20T00:29:13;5.70;;;2.45;;
75793;SDS011;64418;47.536;19.074;2023-02-20T00:31:41;3.58;;;1.20;;
75793;SDS011;64418;47.536;19.074;2023-02-20T00:34:07;6.07;;;1.63;;
75793;SDS011;64418;47.536;19.074;2023-02-20T00:36:34;3.70;;;1.12;;
75793;SDS011;64418;47.536;19.074;2023-02-20T00:39:00;3.92;;;2.35;;
75793;SDS011;64418;47.536;19.074;2023-02-20T00:41:26;4.47;;;2.30;;
75793;SDS011;64418;47.536;19.074;2023-02-20T00:43:52;1.80;;;0.90;;
75793;SDS011;64418;47.536;19.074;2023-02-20T00:46:18;2.97;;;1.17;;
75793;SDS011;64418;47.536;19.074;2023-02-20T00:48:44;4.32;;;1.45;;
75793;SDS011;64418;47.536;19.074;2023-02-20T00:51:10;4.47;;;1.23;;
75793;SDS011;64418;47.536;19.074;2023-02-20T00:53:37;3.08;;;1.00;;
75793;SDS011;64418;47.536;19.074;2023-02-20T00:56:03;2.37;;;0.90;;
75793;SDS011;64418;47.536;19.074;2023-02-20T00:58:29;2.50;;;1.00;;
75793;SDS011;64418;47.536;19.074;2023-02-20T01:00:55;2.58;;;0.90;;
75793;SDS011;64418;47.536;19.074;2023-02-20T01:03:21;2.30;;;0.90;;
75793;SDS011;64418;47.536;19.074;2023-02-20T01:05:47;1.70;;;1.00;;
75793;SDS011;64418;47.536;19.074;2023-02-20T01:08:13;2.60;;;0.97;;
75793;SDS011;64418;47.536;19.074;2023-02-20T01:10:40;4.22;;;1.10;;
75793;SDS011;64418;47.536;19.074;2023-02-20T01:13:06;3.50;;;1.75;;
75793;SDS011;64418;47.536;19.074;2023-02-20T01:15:31;3.43;;;1.60;;
75793;SDS011;64418;47.536;19.074;2023-02-20T01:17:57;1.95;;;1.15;;
75793;SDS011;64418;47.536;19.074;2023-02-20T01:20:23;3.60;;;1.00;;
75793;SDS011;64418;47.536;19.074;2023-02-20T01:22:49;4.43;;;1.05;;
75793;SDS011;64418;47.536;19.074;2023-02-20T01:25:15;3.45;;;1.40;;
75793;SDS011;64418;47.536;19.074;2023-02-20T01:27:42;4.32;;;1.08;;
75793;SDS011;64418;47.536;19.074;2023-02-20T01:30:08;4.37;;;1.83;;
75793;SDS011;64418;47.536;19.074;2023-02-20T01:32:35;3.58;;;0.98;;
75793;SDS011;64418;47.536;19.074;2023-02-20T01:35:01;2.58;;;1.65;;
75793;SDS011;64418;47.536;19.074;2023-02-20T01:37:26;2.90;;;1.60;;
75793;SDS011;64418;47.536;19.074;2023-02-20T01:39:52;2.30;;;1.45;;
75793;SDS011;64418;47.536;19.074;2023-02-20T01:42:19;2.70;;;1.30;;
75793;SDS011;64418;47.536;19.074;2023-02-20T01:44:49;2.43;;;1.40;;
75793;SDS011;64418;47.536;19.074;2023-02-20T01:47:15;2.55;;;1.20;;
75793;SDS011;64418;47.536;19.074;2023-02-20T01:49:42;4.68;;;2.10;;
75793;SDS011;64418;47.536;19.074;2023-02-20T01:52:12;3.08;;;1.10;;
75793;SDS011;64418;47.536;19.074;2023-02-20T01:54:41;1.62;;;1.08;;
75793;SDS011;64418;47.536;19.074;2023-02-20T01:57:11;1.73;;;0.93;;
75793;SDS011;64418;47.536;19.074;2023-02-20T01:59:40;3.45;;;1.27;;
75793;SDS011;64418;47.536;19.074;2023-02-20T02:02:09;2.45;;;1.30;;
75793;SDS011;64418;47.536;19.074;2023-02-20T02:04:36;3.60;;;2.12;;
75793;SDS011;64418;47.536;19.074;2023-02-20T02:07:04;2.55;;;1.42;;
75793;SDS011;64418;47.536;19.074;2023-02-20T02:09:35;2.93;;;1.20;;
75793;SDS011;64418;47.536;19.074;2023-02-20T02:12:05;2.92;;;2.10;;
75793;SDS011;64418;47.536;19.074;2023-02-20T02:14:32;7.22;;;5.40;;
75793;SDS011;64418;47.536;19.074;2023-02-20T02:17:03;11.32;;;6.45;;
75793;SDS011;64418;47.536;19.074;2023-02-20T02:19:51;8.82;;;4.45;;
75793;SDS011;64418;47.536;19.074;2023-02-20T02:22:45;11.63;;;6.60;;
75793;SDS011;64418;47.536;19.074;2023-02-20T02:25:37;8.23;;;5.10;;
75793;SDS011;64418;47.536;19.074;2023-02-20T02:28:27;4.90;;;2.20;;
75793;SDS011;64418;47.536;19.074;2023-02-20T02:31:16;7.82;;;4.05;;
75793;SDS011;64418;47.536;19.074;2023-02-20T02:37:03;6.17;;;3.00;;
75793;SDS011;64418;47.536;19.074;2023-02-20T02:39:40;4.03;;;1.75;;
75793;SDS011;64418;47.536;19.074;2023-02-20T02:42:12;3.97;;;1.65;;
75793;SDS011;64418;47.536;19.074;2023-02-20T02:44:45;3.33;;;1.80;;
75793;SDS011;64418;47.536;19.074;2023-02-20T02:47:20;4.10;;;1.98;;
75793;SDS011;64418;47.536;19.074;2023-02-20T02:49:53;2.60;;;1.70;;
75793;SDS011;64418;47.536;19.074;2023-02-20T02:52:25;3.42;;;2.10;;
75793;SDS011;64418;47.536;19.074;2023-02-20T02:54:52;4.32;;;1.87;;
75793;SDS011;64418;47.536;19.074;2023-02-20T02:57:20;4.47;;;2.45;;
75793;SDS011;64418;47.536;19.074;2023-02-20T02:59:49;4.75;;;2.20;;
75793;SDS011;64418;47.536;19.074;2023-02-20T03:02:18;5.50;;;2.70;;
75793;SDS011;64418;47.536;19.074;2023-02-20T03:04:48;5.32;;;1.87;;
75793;SDS011;64418;47.536;19.074;2023-02-20T03:07:16;6.20;;;3.05;;
75793;SDS011;64418;47.536;19.074;2023-02-20T03:09:46;4.68;;;2.60;;
75793;SDS011;64418;47.536;19.074;2023-02-20T03:12:15;5.07;;;2.40;;
75793;SDS011;64418;47.536;19.074;2023-02-20T03:14:45;8.07;;;3.50;;
75793;SDS011;64418;47.536;19.074;2023-02-20T03:17:16;10.13;;;5.05;;
75793;SDS011;64418;47.536;19.074;2023-02-20T03:19:51;14.57;;;7.90;;
75793;SDS011;64418;47.536;19.074;2023-02-20T03:22:20;18.00;;;6.68;;
75793;SDS011;64418;47.536;19.074;2023-02-20T03:24:55;9.32;;;5.05;;
75793;SDS011;64418;47.536;19.074;2023-02-20T03:27:25;6.80;;;3.37;;
75793;SDS011;64418;47.536;19.074;2023-02-20T03:29:56;13.55;;;5.68;;
75793;SDS011;64418;47.536;19.074;2023-02-20T03:32:24;10.40;;;4.60;;
75793;SDS011;64418;47.536;19.074;2023-02-20T03:34:54;5.97;;;3.00;;
75793;SDS011;64418;47.536;19.074;2023-02-20T03:37:21;6.62;;;4.03;;
75793;SDS011;64418;47.536;19.074;2023-02-20T03:39:55;9.67;;;4.70;;
75793;SDS011;64418;47.536;19.074;2023-02-20T03:42:26;6.55;;;3.10;;
75793;SDS011;64418;47.536;19.074;2023-02-20T03:44:55;4.55;;;2.10;;
75793;SDS011;64418;47.536;19.074;2023-02-20T03:47:24;6.55;;;2.67;;
75793;SDS011;64418;47.536;19.074;2023-02-20T03:49:53;4.32;;;2.42;;
75793;SDS011;64418;47.536;19.074;2023-02-20T03:52:19;3.63;;;1.90;;
75793;SDS011;64418;47.536;19.074;2023-02-20T03:54:46;3.80;;;1.65;;
75793;SDS011;64418;47.536;19.074;2023-02-20T03:57:15;12.05;;;6.40;;
75793;SDS011;64418;47.536;19.074;2023-02-20T03:59:45;13.13;;;7.53;;
75793;SDS011;64418;47.536;19.074;2023-02-20T04:02:16;20.60;;;13.30;;
75793;SDS011;64418;47.536;19.074;2023-02-20T04:04:45;17.47;;;11.77;;
75793;SDS011;64418;47.536;19.074;2023-02-20T04:07:15;5.70;;;3.05;;
75793;SDS011;64418;47.536;19.074;2023-02-20T04:09:45;3.20;;;2.10;;
75793;SDS011;64418;47.536;19.074;2023-02-20T04:12:13;4.22;;;1.92;;
75793;SDS011;64418;47.536;19.074;2023-02-20T04:14:46;3.97;;;1.95;;
75793;SDS011;64418;47.536;19.074;2023-02-20T04:17:21;3.43;;;1.97;;
75793;SDS011;64418;47.536;19.074;2023-02-20T04:19:49;4.43;;;2.03;;
75793;SDS011;64418;47.536;19.074;2023-02-20T04:22:16;6.28;;;2.20;;
75793;SDS011;64418;47.536;19.074;2023-02-20T04:24:46;3.12;;;2.03;;
75793;SDS011;64418;47.536;19.074;2023-02-20T04:27:17;3.17;;;2.00;;
75793;SDS011;64418;47.536;19.074;2023-02-20T04:29:44;6.73;;;2.67;;
75793;SDS011;64418;47.536;19.074;2023-02-20T04:32:10;28.77;;;15.05;;
75793;SDS011;64418;47.536;19.074;2023-02-20T04:34:36;13.65;;;6.28;;
75793;SDS011;64418;47.536;19.074;2023-02-20T04:37:04;9.60;;;3.90;;
75793;SDS011;64418;47.536;19.074;2023-02-20T04:39:32;9.10;;;3.55;;
75793;SDS011;64418;47.536;19.074;2023-02-20T04:41:58;6.22;;;2.30;;
75793;SDS011;64418;47.536;19.074;2023-02-20T04:44:25;7.00;;;2.08;;
75793;SDS011;64418;47.536;19.074;2023-02-20T04:46:55;4.03;;;2.00;;
75793;SDS011;64418;47.536;19.074;2023-02-20T04:49:21;4.65;;;1.87;;
75793;SDS011;64418;47.536;19.074;2023-02-20T04:51:47;5.18;;;1.90;;
75793;SDS011;64418;47.536;19.074;2023-02-20T04:54:13;5.40;;;1.80;;
75793;SDS011;64418;47.536;19.074;2023-02-20T04:56:39;5.03;;;1.70;;
75793;SDS011;64418;47.536;19.074;2023-02-20T04:59:04;4.28;;;1.92;;
75793;SDS011;64418;47.536;19.074;2023-02-20T05:01:32;4.23;;;1.57;;
75793;SDS011;64418;47.536;19.074;2023-02-20T05:03:57;3.08;;;1.77;;
75793;SDS011;64418;47.536;19.074;2023-02-20T05:06:23;4.43;;;1.52;;
75793;SDS011;64418;47.536;19.074;2023-02-20T05:08:49;6.97;;;2.10;;
75793;SDS011;64418;47.536;19.074;2023-02-20T05:11:15;4.90;;;2.37;;
75793;SDS011;64418;47.536;19.074;2023-02-20T05:13:42;5.15;;;2.30;;
75793;SDS011;64418;47.536;19.074;2023-02-20T05:16:07;4.22;;;2.25;;
75793;SDS011;64418;47.536;19.074;2023-02-20T05:18:35;7.40;;;3.93;;
75793;SDS011;64418;47.536;19.074;2023-02-20T05:21:01;4.95;;;3.42;;
75793;SDS011;64418;47.536;19.074;2023-02-20T05:23:27;7.40;;;2.53;;
75793;SDS011;64418;47.536;19.074;2023-02-20T05:25:52;5.18;;;2.45;;
75793;SDS011;64418;47.536;19.074;2023-02-20T05:28:18;3.47;;;2.30;;
75793;SDS011;64418;47.536;19.074;2023-02-20T05:30:43;3.97;;;2.33;;
75793;SDS011;64418;47.536;19.074;2023-02-20T05:33:09;4.80;;;2.50;;
75793;SDS011;64418;47.536;19.074;2023-02-20T05:35:37;4.90;;;2.40;;
75793;SDS011;64418;47.536;19.074;2023-02-20T05:38:02;4.32;;;1.90;;
75793;SDS011;64418;47.536;19.074;2023-02-20T05:40:28;6.13;;;2.13;;
75793;SDS011;64418;47.536;19.074;2023-02-20T05:42:54;4.35;;;1.85;;
75793;SDS011;64418;47.536;19.074;2023-02-20T05:45:19;5.30;;;1.97;;
75793;SDS011;64418;47.536;19.074;2023-02-20T05:47:45;4.57;;;1.98;;
75793;SDS011;64418;47.536;19.074;2023-02-20T05:50:11;4.53;;;1.70;;
75793;SDS011;64418;47.536;19.074;2023-02-20T05:52:38;3.67;;;1.70;;
75793;SDS011;64418;47.536;19.074;2023-02-20T05:55:05;2.85;;;1.50;;
75793;SDS011;64418;47.536;19.074;2023-02-20T05:57:31;3.15;;;1.25;;
75793;SDS011;64418;47.536;19.074;2023-02-20T05:59:57;2.93;;;1.40;;
75793;SDS011;64418;47.536;19.074;2023-02-20T06:02:23;3.25;;;1.40;;
75793;SDS011;64418;47.536;19.074;2023-02-20T06:04:48;4.03;;;1.27;;
75793;SDS011;64418;47.536;19.074;2023-02-20T06:07:14;2.95;;;1.25;;
75793;SDS011;64418;47.536;19.074;2023-02-20T06:09:42;2.50;;;1.20;;
75793;SDS011;64418;47.536;19.074;2023-02-20T06:12:08;2.55;;;1.50;;
75793;SDS011;64418;47.536;19.074;2023-02-20T06:14:34;3.87;;;1.60;;
75793;SDS011;64418;47.536;19.074;2023-02-20T06:17:03;4.18;;;1.50;;
75793;SDS011;64418;47.536;19.074;2023-02-20T06:19:29;3.85;;;1.80;;
75793;SDS011;64418;47.536;19.074;2023-02-20T06:21:55;3.33;;;1.60;;
75793;SDS011;64418;47.536;19.074;2023-02-20T06:24:21;2.62;;;1.25;;
75793;SDS011;64418;47.536;19.074;2023-02-20T06:26:48;3.00;;;1.30;;
75793;SDS011;64418;47.536;19.074;2023-02-20T06:29:15;2.53;;;1.20;;
75793;SDS011;64418;47.536;19.074;2023-02-20T06:31:41;4.57;;;1.42;;
75793;SDS011;64418;47.536;19.074;2023-02-20T06:34:07;3.93;;;1.40;;
75793;SDS011;64418;47.536;19.074;2023-02-20T06:36:34;5.17;;;1.70;;
75793;SDS011;64418;47.536;19.074;2023-02-20T06:39:02;4.55;;;1.30;;
75793;SDS011;64418;47.536;19.074;2023-02-20T06:41:28;3.53;;;1.45;;
75793;SDS011;64418;47.536;19.074;2023-02-20T06:43:55;3.70;;;1.25;;
75793;SDS011;64418;47.536;19.074;2023-02-20T06:46:21;4.70;;;1.43;;
75793;SDS011;64418;47.536;19.074;2023-02-20T06:48:47;3.58;;;1.37;;
75793;SDS011;64418;47.536;19.074;2023-02-20T06:51:15;3.92;;;1.30;;
75793;SDS011;64418;47.536;19.074;2023-02-20T06:53:40;3.20;;;1.40;;
75793;SDS011;64418;47.536;19.074;2023-02-20T06:56:07;6.00;;;1.50;;
75793;SDS011;64418;47.536;19.074;2023-02-20T06:58:33;3.33;;;1.30;;
75793;SDS011;64418;47.536;19.074;2023-02-20T07:01:01;3.50;;;1.50;;
75793;SDS011;64418;47.536;19.074;2023-02-20T07:03:27;2.37;;;1.30;;
75793;SDS011;64418;47.536;19.074;2023-02-20T07:05:52;4.70;;;1.90;;
75793;SDS011;64418;47.536;19.074;2023-02-20T07:08:18;6.03;;;1.58;;
75793;SDS011;64418;47.536;19.074;2023-02-20T07:10:44;3.03;;;1.37;;
75793;SDS011;64418;47.536;19.074;2023-02-20T07:13:10;6.15;;;1.50;;
75793;SDS011;64418;47.536;19.074;2023-02-20T07:15:36;4.47;;;1.45;;
75793;SDS011;64418;47.536;19.074;2023-02-20T07:18:06;4.18;;;1.85;;
75793;SDS011;64418;47.536;19.074;2023-02-20T07:20:32;3.27;;;2.07;;
75793;SDS011;64418;47.536;19.074;2023-02-20T07:22:58;3.25;;;1.15;;
75793;SDS011;64418;47.536;19.074;2023-02-20T07:25:23;3.00;;;1.20;;
75793;SDS011;64418;47.536;19.074;2023-02-20T07:27:49;4.18;;;1.50;;
75793;SDS011;64418;47.536;19.074;2023-02-20T07:30:15;3.12;;;1.55;;
75793;SDS011;64418;47.536;19.074;2023-02-20T07:32:41;3.73;;;1.30;;
75793;SDS011;64418;47.536;19.074;2023-02-20T07:35:08;3.67;;;1.30;;
75793;SDS011;64418;47.536;19.074;2023-02-20T07:37:34;6.78;;;1.90;;
75793;SDS011;64418;47.536;19.074;2023-02-20T07:40:01;3.85;;;1.40;;
75793;SDS011;64418;47.536;19.074;2023-02-20T07:42:28;5.77;;;1.73;;
75793;SDS011;64418;47.536;19.074;2023-02-20T07:44:53;2.67;;;1.17;;
75793;SDS011;64418;47.536;19.074;2023-02-20T07:47:19;4.32;;;1.10;;
75793;SDS011;64418;47.536;19.074;2023-02-20T07:49:48;5.13;;;1.20;;
75793;SDS011;64418;47.536;19.074;2023-02-20T07:52:16;4.78;;;1.62;;
75793;SDS011;64418;47.536;19.074;2023-02-20T07:54:41;4.45;;;1.62;;
75793;SDS011;64418;47.536;19.074;2023-02-20T07:57:07;5.30;;;1.70;;
75793;SDS011;64418;47.536;19.074;2023-02-20T07:59:34;2.30;;;1.50;;
75793;SDS011;64418;47.536;19.074;2023-02-20T08:02:00;5.70;;;1.80;;
75793;SDS011;64418;47.536;19.074;2023-02-20T08:04:26;2.50;;;1.50;;
75793;SDS011;64418;47.536;19.074;2023-02-20T08:06:52;5.37;;;1.92;;
75793;SDS011;64418;47.536;19.074;2023-02-20T08:09:19;3.20;;;1.87;;
75793;SDS011;64418;47.536;19.074;2023-02-20T08:11:45;6.67;;;2.00;;
75793;SDS011;64418;47.536;19.074;2023-02-20T08:14:11;7.37;;;1.80;;
75793;SDS011;64418;47.536;19.074;2023-02-20T08:16:38;7.40;;;2.15;;
75793;SDS011;64418;47.536;19.074;2023-02-20T08:19:04;4.47;;;1.87;;
75793;SDS011;64418;47.536;19.074;2023-02-20T08:21:29;5.73;;;2.43;;
75793;SDS011;64418;47.536;19.074;2023-02-20T08:23:55;6.10;;;2.03;;
75793;SDS011;64418;47.536;19.074;2023-02-20T08:26:22;5.67;;;2.03;;
75793;SDS011;64418;47.536;19.074;2023-02-20T08:28:49;4.95;;;1.90;;
75793;SDS011;64418;47.536;19.074;2023-02-20T08:31:15;5.00;;;2.03;;
75793;SDS011;64418;47.536;19.074;2023-02-20T08:33:41;6.53;;;3.00;;
75793;SDS011;64418;47.536;19.074;2023-02-20T08:36:08;3.93;;;2.30;;
75793;SDS011;64418;47.536;19.074;2023-02-20T08:38:35;4.28;;;2.15;;
75793;SDS011;64418;47.536;19.074;2023-02-20T08:41:02;4.90;;;2.35;;
75793;SDS011;64418;47.536;19.074;2023-02-20T08:43:30;3.70;;;2.28;;
75793;SDS011;64418;47.536;19.074;2023-02-20T08:45:56;13.87;;;3.40;;
75793;SDS011;64418;47.536;19.074;2023-02-20T08:48:23;10.18;;;3.87;;
75793;SDS011;64418;47.536;19.074;2023-02-20T08:50:49;8.65;;;3.03;;
75793;SDS011;64418;47.536;19.074;2023-02-20T08:53:15;8.73;;;2.50;;
75793;SDS011;64418;47.536;19.074;2023-02-20T08:55:41;4.87;;;2.03;;
75793;SDS011;64418;47.536;19.074;2023-02-20T08:58:08;4.50;;;2.37;;
75793;SDS011;64418;47.536;19.074;2023-02-20T09:00:35;5.72;;;2.40;;
75793;SDS011;64418;47.536;19.074;2023-02-20T09:03:01;5.22;;;2.33;;
75793;SDS011;64418;47.536;19.074;2023-02-20T09:05:27;6.53;;;2.37;;
75793;SDS011;64418;47.536;19.074;2023-02-20T09:07:53;10.60;;;2.27;;
75793;SDS011;64418;47.536;19.074;2023-02-20T09:10:18;5.90;;;2.17;;
75793;SDS011;64418;47.536;19.074;2023-02-20T09:12:45;7.00;;;2.10;;
75793;SDS011;64418;47.536;19.074;2023-02-20T09:15:11;8.63;;;2.20;;
75793;SDS011;64418;47.536;19.074;2023-02-20T09:17:39;5.65;;;1.92;;
75793;SDS011;64418;47.536;19.074;2023-02-20T09:20:06;7.37;;;2.28;;
75793;SDS011;64418;47.536;19.074;2023-02-20T09:22:33;3.72;;;1.92;;
75793;SDS011;64418;47.536;19.074;2023-02-20T09:25:00;4.32;;;1.98;;
75793;SDS011;64418;47.536;19.074;2023-02-20T09:27:25;9.37;;;2.27;;
75793;SDS011;64418;47.536;19.074;2023-02-20T09:29:51;2.45;;;1.70;;
75793;SDS011;64418;47.536;19.074;2023-02-20T09:32:17;3.53;;;2.20;;
75793;SDS011;64418;47.536;19.074;2023-02-20T09:34:44;4.40;;;2.50;;
75793;SDS011;64418;47.536;19.074;2023-02-20T09:37:10;3.20;;;2.10;;
75793;SDS011;64418;47.536;19.074;2023-02-20T09:39:36;6.20;;;2.22;;
75793;SDS011;64418;47.536;19.074;2023-02-20T09:42:04;4.33;;;2.20;;
75793;SDS011;64418;47.536;19.074;2023-02-20T09:44:40;5.20;;;2.35;;
75793;SDS011;64418;47.536;19.074;2023-02-20T09:47:23;7.07;;;2.00;;
75793;SDS011;64418;47.536;19.074;2023-02-20T09:50:02;7.95;;;2.20;;
75793;SDS011;64418;47.536;19.074;2023-02-20T09:52:32;2.57;;;1.77;;
75793;SDS011;64418;47.536;19.074;2023-02-20T09:55:02;8.10;;;2.28;;
75793;SDS011;64418;47.536;19.074;2023-02-20T09:57:30;4.10;;;2.15;;
75793;SDS011;64418;47.536;19.074;2023-02-20T10:00:02;7.25;;;2.47;;
75793;SDS011;64418;47.536;19.074;2023-02-20T10:02:31;6.37;;;2.33;;
75793;SDS011;64418;47.536;19.074;2023-02-20T10:05:04;6.03;;;1.83;;
75793;SDS011;64418;47.536;19.074;2023-02-20T10:07:38;8.30;;;3.07;;
75793;SDS011;64418;47.536;19.074;2023-02-20T10:10:09;4.80;;;2.33;;
75793;SDS011;64418;47.536;19.074;2023-02-20T10:12:44;6.18;;;2.47;;
75793;SDS011;64418;47.536;19.074;2023-02-20T10:15:18;5.20;;;2.30;;
75793;SDS011;64418;47.536;19.074;2023-02-20T10:17:49;6.72;;;2.17;;
75793;SDS011;64418;47.536;19.074;2023-02-20T10:20:29;4.43;;;1.83;;
75793;SDS011;64418;47.536;19.074;2023-02-20T10:23:04;4.47;;;2.15;;
75793;SDS011;64418;47.536;19.074;2023-02-20T10:25:36;5.00;;;2.40;;
75793;SDS011;64418;47.536;19.074;2023-02-20T10:28:06;5.20;;;2.08;;
75793;SDS011;64418;47.536;19.074;2023-02-20T10:30:35;3.37;;;1.67;;
75793;SDS011;64418;47.536;19.074;2023-02-20T10:33:10;9.27;;;3.27;;
75793;SDS011;64418;47.536;19.074;2023-02-20T10:35:48;6.32;;;2.50;;
75793;SDS011;64418;47.536;19.074;2023-02-20T10:38:19;5.80;;;2.20;;
75793;SDS011;64418;47.536;19.074;2023-02-20T10:40:50;3.40;;;2.53;;
75793;SDS011;64418;47.536;19.074;2023-02-20T10:43:24;5.05;;;2.72;;
75793;SDS011;64418;47.536;19.074;2023-02-20T10:45:57;11.10;;;3.10;;
75793;SDS011;64418;47.536;19.074;2023-02-20T10:48:32;5.35;;;2.40;;
75793;SDS011;64418;47.536;19.074;2023-02-20T10:51:05;4.85;;;2.35;;
75793;SDS011;64418;47.536;19.074;2023-02-20T10:53:36;3.25;;;2.20;;
75793;SDS011;64418;47.536;19.074;2023-02-20T10:56:08;5.10;;;2.20;;
75793;SDS011;64418;47.536;19.074;2023-02-20T10:58:39;6.80;;;2.40;;
75793;SDS011;64418;47.536;19.074;2023-02-20T11:01:10;6.60;;;2.33;;
75793;SDS011;64418;47.536;19.074;2023-02-20T11:03:40;6.20;;;2.37;;
75793;SDS011;64418;47.536;19.074;2023-02-20T11:06:15;8.75;;;2.40;;
75793;SDS011;64418;47.536;19.074;2023-02-20T11:08:42;4.15;;;2.35;;
75793;SDS011;64418;47.536;19.074;2023-02-20T11:11:19;4.73;;;2.10;;
75793;SDS011;64418;47.536;19.074;2023-02-20T11:13:48;5.18;;;2.92;;
75793;SDS011;64418;47.536;19.074;2023-02-20T11:16:19;2.90;;;2.20;;
75793;SDS011;64418;47.536;19.074;2023-02-20T11:18:47;3.72;;;1.80;;
75793;SDS011;64418;47.536;19.074;2023-02-20T11:21:33;3.37;;;2.03;;
75793;SDS011;64418;47.536;19.074;2023-02-20T11:24:16;3.20;;;2.00;;
75793;SDS011;64418;47.536;19.074;2023-02-20T11:26:44;4.25;;;2.20;;
75793;SDS011;64418;47.536;19.074;2023-02-20T11:29:12;5.68;;;2.35;;
75793;SDS011;64418;47.536;19.074;2023-02-20T11:31:41;4.75;;;2.62;;
75793;SDS011;64418;47.536;19.074;2023-02-20T11:34:13;4.78;;;2.42;;
75793;SDS011;64418;47.536;19.074;2023-02-20T11:36:44;4.10;;;2.33;;
75793;SDS011;64418;47.536;19.074;2023-02-20T11:39:22;8.50;;;2.37;;
75793;SDS011;64418;47.536;19.074;2023-02-20T11:41:50;3.62;;;2.22;;
75793;SDS011;64418;47.536;19.074;2023-02-20T11:44:30;5.95;;;2.85;;
75793;SDS011;64418;47.536;19.074;2023-02-20T11:49:46;3.40;;;2.20;;
75793;SDS011;64418;47.536;19.074;2023-02-20T11:52:17;4.07;;;2.28;;
75793;SDS011;64418;47.536;19.074;2023-02-20T11:54:44;3.97;;;2.62;;
75793;SDS011;64418;47.536;19.074;2023-02-20T11:57:21;5.35;;;2.75;;
75793;SDS011;64418;47.536;19.074;2023-02-20T11:59:50;4.57;;;2.40;;
75793;SDS011;64418;47.536;19.074;2023-02-20T12:02:31;4.73;;;1.93;;
75793;SDS011;64418;47.536;19.074;2023-02-20T12:05:02;5.10;;;2.50;;
75793;SDS011;64418;47.536;19.074;2023-02-20T12:07:37;4.57;;;2.50;;
75793;SDS011;64418;47.536;19.074;2023-02-20T12:13:07;6.45;;;2.40;;
75793;SDS011;64418;47.536;19.074;2023-02-20T12:15:36;5.10;;;2.17;;
75793;SDS011;64418;47.536;19.074;2023-02-20T12:21:09;6.65;;;2.92;;
75793;SDS011;64418;47.536;19.074;2023-02-20T12:23:47;4.75;;;2.25;;
75793;SDS011;64418;47.536;19.074;2023-02-20T12:26:26;3.40;;;2.10;;
75793;SDS011;64418;47.536;19.074;2023-02-20T12:29:02;3.17;;;1.97;;
75793;SDS011;64418;47.536;19.074;2023-02-20T12:31:40;4.45;;;2.30;;
75793;SDS011;64418;47.536;19.074;2023-02-20T12:34:23;3.65;;;2.10;;
75793;SDS011;64418;47.536;19.074;2023-02-20T12:37:01;4.60;;;2.00;;
75793;SDS011;64418;47.536;19.074;2023-02-20T12:39:35;5.05;;;2.22;;
75793;SDS011;64418;47.536;19.074;2023-02-20T12:42:15;6.67;;;2.00;;
75793;SDS011;64418;47.536;19.074;2023-02-20T12:44:55;3.80;;;1.87;;
75793;SDS011;64418;47.536;19.074;2023-02-20T12:47:33;6.07;;;1.85;;
75793;SDS011;64418;47.536;19.074;2023-02-20T12:50:11;3.60;;;2.20;;
75793;SDS011;64418;47.536;19.074;2023-02-20T12:53:12;3.47;;;2.20;;
75793;SDS011;64418;47.536;19.074;2023-02-20T12:55:53;7.53;;;2.50;;
75793;SDS011;64418;47.536;19.074;2023-02-20T12:58:30;3.23;;;2.00;;
75793;SDS011;64418;47.536;19.074;2023-02-20T13:01:08;3.78;;;2.03;;
75793;SDS011;64418;47.536;19.074;2023-02-20T13:03:38;7.57;;;2.58;;
75793;SDS011;64418;47.536;19.074;2023-02-20T13:06:16;5.03;;;2.40;;
75793;SDS011;64418;47.536;19.074;2023-02-20T13:08:53;7.47;;;3.50;;
75793;SDS011;64418;47.536;19.074;2023-02-20T13:11:27;6.67;;;3.00;;
75793;SDS011;64418;47.536;19.074;2023-02-20T13:14:00;6.18;;;3.15;;
75793;SDS011;64418;47.536;19.074;2023-02-20T13:16:42;6.22;;;2.42;;
75793;SDS011;64418;47.536;19.074;2023-02-20T13:19:14;5.53;;;2.40;;
75793;SDS011;64418;47.536;19.074;2023-02-20T13:21:47;4.57;;;2.00;;
75793;SDS011;64418;47.536;19.074;2023-02-20T13:24:30;3.27;;;2.30;;
75793;SDS011;64418;47.536;19.074;2023-02-20T13:27:01;4.05;;;2.03;;
75793;SDS011;64418;47.536;19.074;2023-02-20T13:29:28;5.10;;;2.42;;
75793;SDS011;64418;47.536;19.074;2023-02-20T13:31:54;4.10;;;2.20;;
75793;SDS011;64418;47.536;19.074;2023-02-20T13:34:29;5.25;;;2.35;;
75793;SDS011;64418;47.536;19.074;2023-02-20T13:37:03;3.37;;;2.00;;
75793;SDS011;64418;47.536;19.074;2023-02-20T13:39:36;5.60;;;2.20;;
75793;SDS011;64418;47.536;19.074;2023-02-20T13:42:26;4.43;;;2.40;;
75793;SDS011;64418;47.536;19.074;2023-02-20T13:44:59;3.37;;;1.90;;
75793;SDS011;64418;47.536;19.074;2023-02-20T13:47:37;4.87;;;3.25;;
75793;SDS011;64418;47.536;19.074;2023-02-20T13:52:52;6.25;;;1.98;;
75793;SDS011;64418;47.536;19.074;2023-02-20T13:55:19;9.32;;;1.95;;
75793;SDS011;64418;47.536;19.074;2023-02-20T13:57:49;4.28;;;2.28;;
75793;SDS011;64418;47.536;19.074;2023-02-20T14:00:26;4.43;;;1.97;;
75793;SDS011;64418;47.536;19.074;2023-02-20T14:02:59;4.85;;;1.67;;
75793;SDS011;64418;47.536;19.074;2023-02-20T14:05:25;5.97;;;2.80;;
75793;SDS011;64418;47.536;19.074;2023-02-20T14:07:52;5.40;;;1.80;;
75793;SDS011;64418;47.536;19.074;2023-02-20T14:10:22;5.20;;;3.27;;
75793;SDS011;64418;47.536;19.074;2023-02-20T14:12:56;2.85;;;1.52;;
75793;SDS011;64418;47.536;19.074;2023-02-20T14:15:25;3.12;;;1.52;;
75793;SDS011;64418;47.536;19.074;2023-02-20T14:17:52;3.37;;;1.55;;
75793;SDS011;64418;47.536;19.074;2023-02-20T14:20:19;4.50;;;2.37;;
75793;SDS011;64418;47.536;19.074;2023-02-20T14:22:47;4.67;;;1.70;;
75793;SDS011;64418;47.536;19.074;2023-02-20T14:25:17;4.87;;;1.85;;
75793;SDS011;64418;47.536;19.074;2023-02-20T14:27:46;3.25;;;1.33;;
75793;SDS011;64418;47.536;19.074;2023-02-20T14:30:15;2.58;;;1.40;;
75793;SDS011;64418;47.536;19.074;2023-02-20T14:32:43;3.57;;;1.70;;
75793;SDS011;64418;47.536;19.074;2023-02-20T14:35:12;6.20;;;1.80;;
75793;SDS011;64418;47.536;19.074;2023-02-20T14:37:53;3.45;;;1.67;;
75793;SDS011;64418;47.536;19.074;2023-02-20T14:40:32;6.30;;;1.73;;
75793;SDS011;64418;47.536;19.074;2023-02-20T14:43:01;5.28;;;2.25;;
75793;SDS011;64418;47.536;19.074;2023-02-20T14:45:29;3.90;;;1.63;;
75793;SDS011;64418;47.536;19.074;2023-02-20T14:47:56;3.53;;;1.73;;
75793;SDS011;64418;47.536;19.074;2023-02-20T14:50:25;4.47;;;2.78;;
75793;SDS011;64418;47.536;19.074;2023-02-20T14:53:02;3.67;;;2.08;;
75793;SDS011;64418;47.536;19.074;2023-02-20T14:55:36;3.90;;;1.70;;
75793;SDS011;64418;47.536;19.074;2023-02-20T14:58:04;8.10;;;3.28;;
75793;SDS011;64418;47.536;19.074;2023-02-20T15:00:35;5.37;;;2.20;;
75793;SDS011;64418;47.536;19.074;2023-02-20T15:03:06;5.62;;;1.80;;